createdAt,value
2019-02-22T00:00:52.351Z,0.00
2019-02-22T00:01:52.343Z,0.00
2019-02-22T00:02:52.363Z,0.00
2019-02-22T00:03:52.321Z,0.00
2019-02-22T00:04:52.317Z,0.00
2019-02-22T00:05:52.302Z,0.00
2019-02-22T00:06:52.308Z,0.00
2019-02-22T00:08:03.322Z,0.00
2019-02-22T00:08:52.281Z,0.00
2019-02-22T00:09:52.284Z,0.00
2019-02-22T00:10:52.255Z,0.00
2019-02-22T00:11:52.254Z,0.00
2019-02-22T00:12:52.247Z,0.00
2019-02-22T00:13:52.259Z,0.00
2019-02-22T00:14:52.218Z,0.00
2019-02-22T00:15:52.212Z,0.00
2019-02-22T00:16:52.195Z,0.00
2019-02-22T00:17:52.186Z,0.00
2019-02-22T00:18:52.177Z,0.00
2019-02-22T00:19:52.208Z,0.00
2019-02-22T00:20:52.152Z,0.00
2019-02-22T00:21:52.150Z,0.00
2019-02-22T00:22:52.132Z,0.00
2019-02-22T00:23:52.120Z,0.00
2019-02-22T00:24:52.186Z,0.00
2019-02-22T00:25:52.105Z,0.00
2019-02-22T00:26:52.127Z,0.00
2019-02-22T00:27:52.094Z,0.00
2019-02-22T00:28:52.074Z,0.00
2019-02-22T00:29:52.057Z,0.00
2019-02-22T00:30:52.053Z,0.00
2019-02-22T00:31:52.039Z,0.00
2019-02-22T00:32:52.047Z,0.00
2019-02-22T00:33:52.028Z,0.00
2019-02-22T00:34:52.130Z,0.00
2019-02-22T00:35:52.015Z,0.00
2019-02-22T00:36:52.179Z,0.00
2019-02-22T00:37:52.156Z,0.00
2019-02-22T00:39:02.703Z,0.00
2019-02-22T00:39:51.970Z,0.00
2019-02-22T00:40:51.951Z,0.00
2019-02-22T00:41:51.942Z,0.00
2019-02-22T00:42:51.950Z,0.00
2019-02-22T00:43:51.948Z,0.00
2019-02-22T00:44:51.907Z,0.00
2019-02-22T00:45:51.893Z,0.00
2019-02-22T00:46:51.882Z,0.00
2019-02-22T00:47:51.887Z,0.00
2019-02-22T00:48:51.866Z,0.00
2019-02-22T00:49:51.894Z,0.00
2019-02-22T00:50:51.844Z,0.00
2019-02-22T00:51:51.839Z,0.00
2019-02-22T00:52:51.819Z,0.00
2019-02-22T00:53:51.826Z,0.00
2019-02-22T00:54:51.803Z,0.00
2019-02-22T00:55:51.828Z,0.00
2019-02-22T00:56:51.785Z,0.00
2019-02-22T00:57:51.766Z,0.00
2019-02-22T00:58:51.765Z,0.00
2019-02-22T00:59:51.831Z,0.00
2019-02-22T01:00:51.742Z,0.00
2019-02-22T01:01:51.765Z,0.00
2019-02-22T01:02:51.721Z,0.00
2019-02-22T01:03:51.707Z,0.00
2019-02-22T01:04:51.707Z,0.00
2019-02-22T01:05:51.694Z,0.00
2019-02-22T01:06:51.674Z,0.00
2019-02-22T01:07:51.716Z,0.00
2019-02-22T01:08:51.655Z,0.00
2019-02-22T01:10:01.986Z,0.00
2019-02-22T01:10:51.647Z,0.00
2019-02-22T01:11:51.625Z,0.00
2019-02-22T01:12:51.626Z,0.00
2019-02-22T01:13:51.643Z,0.00
2019-02-22T01:14:51.597Z,0.00
2019-02-22T01:15:51.588Z,0.00
2019-02-22T01:16:51.577Z,0.00
2019-02-22T01:17:51.572Z,0.00
2019-02-22T01:18:51.547Z,0.00
2019-02-22T01:19:51.575Z,0.00
2019-02-22T01:20:54.355Z,0.00
2019-02-22T01:21:51.532Z,0.00
2019-02-22T01:22:51.512Z,0.00
2019-02-22T01:23:51.512Z,0.00
2019-02-22T01:24:51.488Z,0.00
2019-02-22T01:25:51.525Z,0.00
2019-02-22T01:26:51.475Z,0.00
2019-02-22T01:27:51.462Z,0.00
2019-02-22T01:28:51.450Z,0.00
2019-02-22T01:29:51.450Z,0.00
2019-02-22T01:30:51.429Z,0.00
2019-02-22T01:31:51.456Z,0.00
2019-02-22T01:32:51.606Z,0.00
2019-02-22T01:33:53.989Z,0.00
2019-02-22T01:34:51.410Z,0.00
2019-02-22T01:35:51.387Z,0.00
2019-02-22T01:36:51.368Z,0.00
2019-02-22T01:37:51.402Z,0.00
2019-02-22T01:38:51.353Z,0.00
2019-02-22T01:39:51.342Z,0.00
2019-02-22T01:41:01.353Z,0.00
2019-02-22T01:41:51.326Z,0.00
2019-02-22T01:42:51.306Z,0.00
2019-02-22T01:43:51.484Z,0.00
2019-02-22T01:44:51.291Z,0.00
2019-02-22T01:45:51.271Z,0.00
2019-02-22T01:46:51.294Z,0.00
2019-02-22T01:47:51.251Z,0.00
2019-02-22T01:48:51.246Z,0.00
2019-02-22T01:49:51.301Z,0.00
2019-02-22T01:50:51.220Z,0.00
2019-02-22T01:51:51.212Z,0.00
2019-02-22T01:52:51.206Z,0.00
2019-02-22T01:53:53.883Z,0.00
2019-02-22T01:54:51.178Z,0.00
2019-02-22T01:55:51.230Z,0.00
2019-02-22T01:56:51.158Z,0.00
2019-02-22T01:57:51.148Z,0.00
2019-02-22T01:58:51.143Z,0.00
2019-02-22T01:59:51.130Z,0.00
2019-02-22T02:00:51.112Z,0.00
2019-02-22T02:01:51.250Z,0.00
2019-02-22T02:02:51.098Z,0.00
2019-02-22T02:03:51.091Z,0.00
2019-02-22T02:04:51.072Z,0.00
2019-02-22T02:05:51.066Z,0.00
2019-02-22T02:06:51.091Z,0.00
2019-02-22T02:07:51.053Z,0.00
2019-02-22T02:08:51.053Z,0.00
2019-02-22T02:09:51.022Z,0.00
2019-02-22T02:10:54.167Z,0.00
2019-02-22T02:12:02.162Z,0.00
2019-02-22T02:12:50.996Z,0.00
2019-02-22T02:13:50.984Z,0.00
2019-02-22T02:14:50.974Z,0.00
2019-02-22T02:15:50.976Z,0.00
2019-02-22T02:16:50.951Z,0.00
2019-02-22T02:17:50.983Z,0.00
2019-02-22T02:18:50.927Z,0.00
2019-02-22T02:19:50.924Z,0.00
2019-02-22T02:20:50.935Z,0.00
2019-02-22T02:21:50.896Z,0.00
2019-02-22T02:22:50.891Z,0.00
2019-02-22T02:23:51.053Z,0.00
2019-02-22T02:24:50.875Z,0.00
2019-02-22T02:25:50.853Z,0.00
2019-02-22T02:26:50.848Z,0.00
2019-02-22T02:27:50.858Z,0.00
2019-02-22T02:28:51.660Z,0.00
2019-02-22T02:29:50.858Z,0.00
2019-02-22T02:30:50.800Z,0.00
2019-02-22T02:31:50.801Z,0.00
2019-02-22T02:32:50.808Z,0.00
2019-02-22T02:33:50.784Z,0.00
2019-02-22T02:34:50.765Z,0.00
2019-02-22T02:35:50.784Z,0.00
2019-02-22T02:36:50.747Z,0.00
2019-02-22T02:37:50.729Z,0.00
2019-02-22T02:38:50.740Z,0.00
2019-02-22T02:39:50.717Z,0.00
2019-02-22T02:40:50.709Z,0.00
2019-02-22T02:41:50.705Z,0.00
2019-02-22T02:43:01.322Z,0.00
2019-02-22T02:43:50.685Z,0.00
2019-02-22T02:44:50.663Z,0.00
2019-02-22T02:45:50.652Z,0.00
2019-02-22T02:46:50.646Z,0.00
2019-02-22T02:47:50.700Z,0.00
2019-02-22T02:48:50.660Z,0.00
2019-02-22T02:49:50.680Z,0.00
2019-02-22T02:50:50.620Z,0.00
2019-02-22T02:51:50.585Z,0.00
2019-02-22T02:52:50.611Z,0.00
2019-02-22T02:53:50.588Z,0.00
2019-02-22T02:54:50.745Z,0.00
2019-02-22T02:55:50.558Z,0.00
2019-02-22T02:56:50.571Z,0.00
2019-02-22T02:57:50.522Z,0.00
2019-02-22T02:58:50.517Z,0.00
2019-02-22T02:59:50.525Z,0.00
2019-02-22T03:00:50.531Z,0.00
2019-02-22T03:01:50.486Z,0.00
2019-02-22T03:02:50.493Z,0.00
2019-02-22T03:03:50.461Z,0.00
2019-02-22T03:04:50.454Z,0.00
2019-02-22T03:05:50.440Z,0.00
2019-02-22T03:06:50.606Z,0.00
2019-02-22T03:07:50.427Z,0.00
2019-02-22T03:08:50.411Z,0.00
2019-02-22T03:09:50.402Z,0.00
2019-02-22T03:10:50.395Z,0.00
2019-02-22T03:11:50.386Z,0.00
2019-02-22T03:12:50.407Z,0.00
2019-02-22T03:14:02.136Z,0.00
2019-02-22T03:14:50.351Z,0.00
2019-02-22T03:15:50.340Z,0.00
2019-02-22T03:16:50.349Z,0.00
2019-02-22T03:17:50.320Z,0.00
2019-02-22T03:18:50.347Z,0.00
2019-02-22T03:19:50.311Z,0.00
2019-02-22T03:20:50.282Z,0.00
2019-02-22T03:21:50.293Z,0.00
2019-02-22T03:22:50.271Z,0.00
2019-02-22T03:23:50.269Z,0.00
2019-02-22T03:24:53.585Z,0.00
2019-02-22T03:25:50.241Z,0.00
2019-02-22T03:26:50.227Z,0.00
2019-02-22T03:27:50.221Z,0.00
2019-02-22T03:28:50.207Z,0.00
2019-02-22T03:29:50.192Z,0.00
2019-02-22T03:30:50.219Z,0.00
2019-02-22T03:31:50.195Z,0.00
2019-02-22T03:32:50.166Z,0.00
2019-02-22T03:33:50.173Z,0.00
2019-02-22T03:34:50.141Z,0.00
2019-02-22T03:35:50.137Z,0.00
2019-02-22T03:36:50.143Z,0.00
2019-02-22T03:37:50.112Z,0.00
2019-02-22T03:38:50.105Z,0.00
2019-02-22T03:39:50.094Z,0.00
2019-02-22T03:40:50.089Z,0.00
2019-02-22T03:41:50.067Z,0.00
2019-02-22T03:42:50.092Z,0.00
2019-02-22T03:43:50.057Z,0.00
2019-02-22T03:45:00.562Z,0.00
2019-02-22T03:45:50.045Z,0.00
2019-02-22T03:46:50.015Z,0.00
2019-02-22T03:47:50.013Z,0.00
2019-02-22T03:48:50.046Z,0.00
2019-02-22T03:49:49.985Z,0.00
2019-02-22T03:50:49.977Z,0.00
2019-02-22T03:51:49.973Z,0.00
2019-02-22T03:52:49.958Z,0.00
2019-02-22T03:53:49.962Z,0.00
2019-02-22T03:54:49.980Z,0.00
2019-02-22T03:55:49.937Z,0.00
2019-02-22T03:56:49.916Z,0.00
2019-02-22T03:57:49.899Z,0.00
2019-02-22T03:58:49.895Z,0.00
2019-02-22T03:59:51.157Z,0.00
2019-02-22T04:00:49.920Z,0.00
2019-02-22T04:01:49.917Z,0.00
2019-02-22T04:02:49.858Z,0.00
2019-02-22T04:03:49.844Z,0.00
2019-02-22T04:04:49.831Z,0.00
2019-02-22T04:05:49.829Z,0.00
2019-02-22T04:06:49.836Z,0.00
2019-02-22T04:07:49.795Z,0.00
2019-02-22T04:08:49.792Z,0.00
2019-02-22T04:09:49.780Z,0.00
2019-02-22T04:10:49.812Z,0.00
2019-02-22T04:11:49.763Z,0.00
2019-02-22T04:12:49.754Z,0.00
2019-02-22T04:13:49.739Z,0.00
2019-02-22T04:14:49.728Z,0.00
2019-02-22T04:15:59.929Z,0.00
2019-02-22T04:16:49.749Z,0.00
2019-02-22T04:17:49.700Z,0.00
2019-02-22T04:18:49.698Z,0.00
2019-02-22T04:19:49.681Z,0.00
2019-02-22T04:20:49.672Z,0.00
2019-02-22T04:21:49.696Z,0.00
2019-02-22T04:22:49.647Z,0.00
2019-02-22T04:23:49.656Z,0.00
2019-02-22T04:24:49.620Z,0.00
2019-02-22T04:25:49.614Z,0.00
2019-02-22T04:26:49.626Z,0.00
2019-02-22T04:27:49.644Z,0.00
2019-02-22T04:28:49.580Z,0.00
2019-02-22T04:29:49.581Z,0.00
2019-02-22T04:30:49.578Z,0.00
2019-02-22T04:31:49.551Z,0.00
2019-02-22T04:32:49.543Z,0.00
2019-02-22T04:33:49.569Z,0.00
2019-02-22T04:34:49.523Z,0.00
2019-02-22T04:35:49.517Z,0.00
2019-02-22T04:36:49.503Z,0.00
2019-02-22T04:37:49.487Z,0.00
2019-02-22T04:38:49.475Z,0.00
2019-02-22T04:39:49.509Z,0.00
2019-02-22T04:40:49.524Z,0.00
2019-02-22T04:41:57.816Z,0.00
2019-02-22T04:42:50.493Z,0.00
2019-02-22T04:43:49.426Z,0.00
2019-02-22T04:44:49.415Z,0.00
2019-02-22T04:45:49.425Z,0.00
2019-02-22T04:47:01.121Z,0.00
2019-02-22T04:47:49.403Z,0.00
2019-02-22T04:48:49.378Z,0.00
2019-02-22T04:49:49.368Z,0.00
2019-02-22T04:50:49.380Z,0.00
2019-02-22T04:51:49.400Z,0.00
2019-02-22T04:52:49.335Z,0.00
2019-02-22T04:53:49.326Z,0.00
2019-02-22T04:54:49.317Z,0.00
2019-02-22T04:55:49.308Z,0.00
2019-02-22T04:56:49.289Z,0.00
2019-02-22T04:57:49.316Z,0.00
2019-02-22T04:58:49.282Z,0.00
2019-02-22T04:59:49.272Z,0.00
2019-02-22T05:00:49.253Z,0.00
2019-02-22T05:01:49.238Z,0.00
2019-02-22T05:02:49.235Z,0.00
2019-02-22T05:03:49.261Z,0.00
2019-02-22T05:04:49.238Z,0.00
2019-02-22T05:05:49.205Z,0.00
2019-02-22T05:06:49.192Z,0.00
2019-02-22T05:07:49.186Z,0.00
2019-02-22T05:08:49.177Z,0.00
2019-02-22T05:09:49.196Z,0.00
2019-02-22T05:10:49.145Z,0.00
2019-02-22T05:11:49.141Z,0.00
2019-02-22T05:12:49.130Z,0.00
2019-02-22T05:13:49.120Z,0.00
2019-02-22T05:14:49.128Z,5.62
2019-02-22T05:15:49.121Z,5.62
2019-02-22T05:16:49.093Z,5.62
2019-02-22T05:17:59.645Z,5.62
2019-02-22T05:18:49.084Z,5.62
2019-02-22T05:19:49.056Z,5.62
2019-02-22T05:20:49.047Z,5.62
2019-02-22T05:21:49.229Z,5.62
2019-02-22T05:22:49.028Z,5.62
2019-02-22T05:23:49.026Z,11.25
2019-02-22T05:24:49.004Z,11.25
2019-02-22T05:25:48.995Z,11.25
2019-02-22T05:26:49.004Z,11.25
2019-02-22T05:27:49.006Z,11.25
2019-02-22T05:28:48.966Z,11.25
2019-02-22T05:29:48.959Z,16.88
2019-02-22T05:30:48.943Z,16.88
2019-02-22T05:31:48.936Z,16.88
2019-02-22T05:32:48.931Z,16.88
2019-02-22T05:33:48.972Z,16.88
2019-02-22T05:34:48.902Z,22.50
2019-02-22T05:35:48.888Z,22.50
2019-02-22T05:36:48.896Z,22.50
2019-02-22T05:37:48.869Z,22.50
2019-02-22T05:38:48.881Z,28.12
2019-02-22T05:39:48.897Z,28.12
2019-02-22T05:40:48.838Z,28.12
2019-02-22T05:41:48.831Z,28.12
2019-02-22T05:42:48.821Z,33.75
2019-02-22T05:43:48.807Z,33.75
2019-02-22T05:44:48.848Z,33.75
2019-02-22T05:45:48.827Z,33.75
2019-02-22T05:46:59.677Z,39.38
2019-02-22T05:47:49.794Z,39.38
2019-02-22T05:48:58.750Z,39.38
2019-02-22T05:49:48.768Z,45.00
2019-02-22T05:50:48.735Z,45.00
2019-02-22T05:51:48.912Z,45.00
2019-02-22T05:52:48.714Z,45.00
2019-02-22T05:53:48.709Z,50.62
2019-02-22T05:54:48.692Z,50.62
2019-02-22T05:55:48.684Z,50.62
2019-02-22T05:56:48.681Z,56.25
2019-02-22T05:57:48.718Z,56.25
2019-02-22T05:58:48.711Z,56.25
2019-02-22T05:59:48.639Z,61.88
2019-02-22T06:00:48.630Z,61.88
2019-02-22T06:01:48.619Z,61.88
2019-02-22T06:02:48.619Z,67.50
2019-02-22T06:03:48.608Z,67.50
2019-02-22T06:04:48.599Z,67.50
2019-02-22T06:05:48.581Z,73.12
2019-02-22T06:06:48.590Z,73.12
2019-02-22T06:07:48.564Z,78.75
2019-02-22T06:08:48.628Z,84.38
2019-02-22T06:09:48.536Z,84.38
2019-02-22T06:10:48.532Z,84.38
2019-02-22T06:11:48.521Z,90.00
2019-02-22T06:12:48.512Z,90.00
2019-02-22T06:13:48.501Z,90.00
2019-02-22T06:14:48.539Z,95.62
2019-02-22T06:15:48.477Z,95.62
2019-02-22T06:16:48.465Z,101.25
2019-02-22T06:17:48.457Z,101.25
2019-02-22T06:18:48.444Z,101.25
2019-02-22T06:19:58.681Z,106.88
2019-02-22T06:20:48.439Z,106.88
2019-02-22T06:21:48.415Z,106.88
2019-02-22T06:22:48.403Z,112.50
2019-02-22T06:23:48.427Z,112.50
2019-02-22T06:24:48.382Z,112.50
2019-02-22T06:25:48.420Z,118.12
2019-02-22T06:26:48.371Z,118.12
2019-02-22T06:27:48.357Z,123.75
2019-02-22T06:28:48.354Z,123.75
2019-02-22T06:29:49.328Z,123.75
2019-02-22T06:30:48.329Z,129.38
2019-02-22T06:31:48.347Z,129.38
2019-02-22T06:32:48.323Z,135.00
2019-02-22T06:33:48.309Z,135.00
2019-02-22T06:34:48.280Z,135.00
2019-02-22T06:35:48.282Z,140.62
2019-02-22T06:36:48.257Z,140.62
2019-02-22T06:37:48.294Z,140.62
2019-02-22T06:38:48.240Z,140.62
2019-02-22T06:39:48.233Z,140.62
2019-02-22T06:40:48.407Z,146.25
2019-02-22T06:41:48.225Z,146.25
2019-02-22T06:42:48.216Z,146.25
2019-02-22T06:43:48.236Z,146.25
2019-02-22T06:44:48.250Z,151.88
2019-02-22T06:45:48.170Z,151.88
2019-02-22T06:46:48.162Z,157.50
2019-02-22T06:47:48.160Z,157.50
2019-02-22T06:48:48.162Z,157.50
2019-02-22T06:49:48.155Z,163.12
2019-02-22T06:52:08.926Z,163.12
2019-02-22T06:53:08.862Z,168.75
2019-02-22T06:54:09.609Z,168.75
2019-02-22T06:55:08.773Z,168.75
2019-02-22T06:56:08.820Z,174.38
2019-02-22T06:57:08.754Z,174.38
2019-02-22T06:58:11.697Z,180.00
2019-02-22T06:59:08.748Z,180.00
2019-02-22T07:00:08.773Z,185.62
2019-02-22T07:01:08.717Z,185.62
2019-02-22T07:02:08.697Z,185.62
2019-02-22T07:03:08.902Z,191.25
2019-02-22T07:04:09.740Z,191.25
2019-02-22T07:05:09.001Z,191.25
2019-02-22T07:06:09.642Z,196.88
2019-02-22T07:07:08.688Z,196.88
2019-02-22T07:08:08.630Z,202.50
2019-02-22T07:09:16.660Z,202.50
2019-02-22T07:10:08.605Z,213.75
2019-02-22T07:11:08.597Z,202.50
2019-02-22T07:12:08.586Z,191.25
2019-02-22T07:13:08.586Z,196.88
2019-02-22T07:14:08.577Z,196.88
2019-02-22T07:15:08.598Z,196.88
2019-02-22T07:16:08.543Z,202.50
2019-02-22T07:17:08.579Z,202.50
2019-02-22T07:18:08.534Z,202.50
2019-02-22T07:19:08.514Z,208.12
2019-02-22T07:20:08.555Z,208.12
2019-02-22T07:21:08.555Z,213.75
2019-02-22T07:22:08.582Z,236.25
2019-02-22T07:23:15.483Z,236.25
2019-02-22T07:24:08.466Z,241.88
2019-02-22T07:25:08.479Z,241.88
2019-02-22T07:26:08.440Z,247.50
2019-02-22T07:27:08.560Z,247.50
2019-02-22T07:28:08.429Z,253.12
2019-02-22T07:29:08.416Z,253.12
2019-02-22T07:30:08.418Z,258.75
2019-02-22T07:31:08.405Z,258.75
2019-02-22T07:32:08.384Z,258.75
2019-02-22T07:33:08.434Z,258.75
2019-02-22T07:34:08.366Z,264.38
2019-02-22T07:35:09.865Z,264.38
2019-02-22T07:36:08.339Z,270.00
2019-02-22T07:37:08.380Z,270.00
2019-02-22T07:38:08.321Z,270.00
2019-02-22T07:39:08.328Z,275.62
2019-02-22T07:40:08.319Z,275.62
2019-02-22T07:41:08.293Z,281.25
2019-02-22T07:42:08.283Z,281.25
2019-02-22T07:43:08.498Z,286.88
2019-02-22T07:44:08.455Z,286.88
2019-02-22T07:45:08.263Z,292.50
2019-02-22T07:46:08.242Z,292.50
2019-02-22T07:47:08.275Z,292.50
2019-02-22T07:48:08.225Z,298.12
2019-02-22T07:49:08.204Z,298.12
2019-02-22T07:50:08.450Z,303.75
2019-02-22T07:51:08.250Z,303.75
2019-02-22T07:52:08.238Z,303.75
2019-02-22T07:53:08.267Z,309.38
2019-02-22T07:56:44.902Z,315.00
2019-02-22T07:57:56.701Z,315.00
2019-02-22T07:58:44.802Z,320.62
2019-02-22T08:01:33.677Z,326.25
2019-02-22T08:02:33.620Z,326.25
2019-02-22T08:03:33.624Z,326.25
2019-02-22T08:04:33.600Z,326.25
2019-02-22T08:07:59.489Z,331.88
2019-02-22T08:08:59.582Z,337.50
2019-02-22T08:11:16.137Z,337.50
2019-02-22T08:13:43.426Z,343.12
2019-02-22T08:14:44.054Z,343.12
2019-02-22T08:15:43.275Z,348.75
2019-02-22T08:16:43.277Z,348.75
2019-02-22T08:17:43.267Z,348.75
2019-02-22T08:18:43.293Z,348.75
2019-02-22T08:19:43.275Z,354.38
2019-02-22T08:20:43.241Z,354.38
2019-02-22T08:21:50.223Z,354.38
2019-02-22T08:22:43.209Z,354.38
2019-02-22T08:23:51.695Z,360.00
2019-02-22T08:24:43.180Z,371.25
2019-02-22T08:25:43.184Z,371.25
2019-02-22T08:26:50.217Z,376.88
2019-02-22T08:27:53.018Z,371.25
2019-02-22T08:28:44.145Z,376.88
2019-02-22T08:29:43.169Z,365.62
2019-02-22T08:30:43.121Z,365.62
2019-02-22T08:31:43.109Z,365.62
2019-02-22T08:32:43.105Z,371.25
2019-02-22T08:33:51.604Z,371.25
2019-02-22T08:34:45.762Z,371.25
2019-02-22T08:35:43.136Z,371.25
2019-02-22T08:36:50.071Z,371.25
2019-02-22T08:39:10.843Z,376.88
2019-02-22T08:40:19.712Z,376.88
2019-02-22T08:41:10.899Z,376.88
2019-02-22T08:43:37.648Z,382.50
2019-02-22T08:45:47.270Z,382.50
2019-02-22T08:46:47.244Z,382.50
2019-02-22T08:47:47.235Z,382.50
2019-02-22T08:48:47.239Z,388.12
2019-02-22T08:49:47.209Z,388.12
2019-02-22T08:50:47.254Z,388.12
2019-02-22T08:51:47.219Z,388.12
2019-02-22T08:52:47.172Z,388.12
2019-02-22T08:53:47.158Z,388.12
2019-02-22T08:54:47.531Z,393.75
2019-02-22T08:55:47.139Z,393.75
2019-02-22T08:56:47.141Z,393.75
2019-02-22T08:57:47.119Z,393.75
2019-02-22T08:58:47.132Z,393.75
2019-02-22T08:59:47.130Z,393.75
2019-02-22T09:00:47.138Z,399.38
2019-02-22T09:01:47.186Z,399.38
2019-02-22T09:02:47.084Z,399.38
2019-02-22T09:03:50.965Z,399.38
2019-02-22T09:04:47.161Z,399.38
2019-02-22T09:05:47.091Z,399.38
2019-02-22T09:06:47.192Z,399.38
2019-02-22T09:07:47.121Z,405.00
2019-02-22T09:08:47.134Z,399.38
2019-02-22T09:09:47.001Z,405.00
2019-02-22T09:10:47.020Z,405.00
2019-02-22T09:11:46.975Z,410.62
2019-02-22T09:12:47.470Z,405.00
2019-02-22T09:13:46.946Z,405.00
2019-02-22T09:14:46.944Z,405.00
2019-02-22T09:15:53.929Z,405.00
2019-02-22T09:16:47.063Z,399.38
2019-02-22T09:17:46.922Z,399.38
2019-02-22T09:18:47.052Z,393.75
2019-02-22T09:19:46.889Z,410.62
2019-02-22T09:20:46.890Z,410.62
2019-02-22T09:21:46.885Z,410.62
2019-02-22T09:22:46.851Z,410.62
2019-02-22T09:23:46.847Z,399.38
2019-02-22T09:24:47.101Z,393.75
2019-02-22T09:25:47.048Z,393.75
2019-02-22T09:26:46.816Z,393.75
2019-02-22T09:27:46.808Z,399.38
2019-02-22T09:28:47.098Z,405.00
2019-02-22T09:29:58.166Z,416.25
2019-02-22T09:30:47.797Z,416.25
2019-02-22T09:31:46.756Z,416.25
2019-02-22T09:32:47.034Z,416.25
2019-02-22T09:33:46.733Z,416.25
2019-02-22T09:34:46.735Z,421.88
2019-02-22T09:35:46.711Z,421.88
2019-02-22T09:36:46.752Z,421.88
2019-02-22T09:37:46.814Z,421.88
2019-02-22T09:38:46.678Z,421.88
2019-02-22T09:39:46.749Z,421.88
2019-02-22T09:40:46.661Z,421.88
2019-02-22T09:41:46.702Z,421.88
2019-02-22T09:42:46.677Z,421.88
2019-02-22T09:43:54.542Z,421.88
2019-02-22T09:44:47.626Z,421.88
2019-02-22T09:45:46.636Z,421.88
2019-02-22T09:46:59.274Z,421.88
2019-02-22T09:47:46.619Z,421.88
2019-02-22T09:48:46.627Z,421.88
2019-02-22T09:49:46.584Z,421.88
2019-02-22T09:50:46.566Z,421.88
2019-02-22T09:51:46.553Z,421.88
2019-02-22T09:52:46.538Z,421.88
2019-02-22T09:53:47.571Z,421.88
2019-02-22T09:54:46.700Z,421.88
2019-02-22T09:55:46.501Z,421.88
2019-02-22T09:56:46.490Z,421.88
2019-02-22T09:57:46.484Z,427.50
2019-02-22T09:58:46.472Z,421.88
2019-02-22T09:59:46.454Z,421.88
2019-02-22T10:00:46.458Z,421.88
2019-02-22T10:01:46.449Z,416.25
2019-02-22T10:02:46.435Z,427.50
2019-02-22T10:03:46.428Z,427.50
2019-02-22T10:04:54.481Z,427.50
2019-02-22T10:05:48.105Z,427.50
2019-02-22T10:06:46.388Z,427.50
2019-02-22T10:07:46.373Z,427.50
2019-02-22T10:08:46.370Z,427.50
2019-02-22T10:09:46.358Z,427.50
2019-02-22T10:10:46.343Z,427.50
2019-02-22T10:11:46.348Z,427.50
2019-02-22T10:12:46.325Z,427.50
2019-02-22T10:13:46.315Z,421.88
2019-02-22T10:14:46.300Z,421.88
2019-02-22T10:15:46.284Z,427.50
2019-02-22T10:16:46.329Z,421.88
2019-02-22T10:17:59.187Z,421.88
2019-02-22T10:18:46.271Z,421.88
2019-02-22T10:19:46.241Z,421.88
2019-02-22T10:20:46.277Z,427.50
2019-02-22T10:21:46.237Z,421.88
2019-02-22T10:22:46.255Z,421.88
2019-02-22T10:23:46.390Z,421.88
2019-02-22T10:24:46.197Z,421.88
2019-02-22T10:25:46.194Z,421.88
2019-02-22T10:26:46.207Z,421.88
2019-02-22T10:27:46.195Z,421.88
2019-02-22T10:28:46.150Z,421.88
2019-02-22T10:29:46.149Z,421.88
2019-02-22T10:30:46.137Z,421.88
2019-02-22T10:31:46.133Z,421.88
2019-02-22T10:32:46.115Z,421.88
2019-02-22T10:33:46.097Z,421.88
2019-02-22T10:34:46.132Z,421.88
2019-02-22T10:35:46.081Z,421.88
2019-02-22T10:36:46.070Z,421.88
2019-02-22T10:37:46.056Z,405.00
2019-02-22T10:38:46.048Z,421.88
2019-02-22T10:39:46.039Z,421.88
2019-02-22T10:40:46.193Z,421.88
2019-02-22T10:41:46.011Z,421.88
2019-02-22T10:42:45.999Z,421.88
2019-02-22T10:43:45.987Z,421.88
2019-02-22T10:44:46.004Z,421.88
2019-02-22T10:45:45.983Z,416.25
2019-02-22T10:46:45.971Z,416.25
2019-02-22T10:47:45.972Z,410.62
2019-02-22T10:48:59.304Z,416.25
2019-02-22T10:49:45.942Z,416.25
2019-02-22T10:50:45.925Z,416.25
2019-02-22T10:51:45.924Z,410.62
2019-02-22T10:52:45.935Z,410.62
2019-02-22T10:53:45.957Z,410.62
2019-02-22T10:54:45.875Z,405.00
2019-02-22T10:55:45.892Z,405.00
2019-02-22T10:56:45.859Z,405.00
2019-02-22T10:57:45.875Z,405.00
2019-02-22T10:58:45.829Z,405.00
2019-02-22T10:59:46.060Z,410.62
2019-02-22T11:00:45.837Z,410.62
2019-02-22T11:01:45.825Z,405.00
2019-02-22T11:02:45.791Z,405.00
2019-02-22T11:03:46.490Z,405.00
2019-02-22T11:04:45.767Z,405.00
2019-02-22T11:05:45.822Z,405.00
2019-02-22T11:06:45.797Z,405.00
2019-02-22T11:07:45.742Z,405.00
2019-02-22T11:08:45.726Z,405.00
2019-02-22T11:09:45.713Z,405.00
2019-02-22T11:10:45.702Z,405.00
2019-02-22T11:11:45.729Z,405.00
2019-02-22T11:12:45.695Z,405.00
2019-02-22T11:13:45.678Z,399.38
2019-02-22T11:14:45.657Z,405.00
2019-02-22T11:15:45.646Z,399.38
2019-02-22T11:16:45.645Z,399.38
2019-02-22T11:17:45.677Z,399.38
2019-02-22T11:18:45.621Z,405.00
2019-02-22T11:19:57.204Z,393.75
2019-02-22T11:20:45.601Z,393.75
2019-02-22T11:21:45.602Z,393.75
2019-02-22T11:22:45.574Z,388.12
2019-02-22T11:23:45.601Z,388.12
2019-02-22T11:24:45.561Z,388.12
2019-02-22T11:25:45.551Z,388.12
2019-02-22T11:26:45.532Z,382.50
2019-02-22T11:27:45.545Z,382.50
2019-02-22T11:28:45.509Z,382.50
2019-02-22T11:29:45.532Z,382.50
2019-02-22T11:30:45.488Z,382.50
2019-02-22T11:31:45.477Z,382.50
2019-02-22T11:32:45.470Z,376.88
2019-02-22T11:33:45.454Z,376.88
2019-02-22T11:34:45.455Z,376.88
2019-02-22T11:35:45.480Z,376.88
2019-02-22T11:36:45.426Z,376.88
2019-02-22T11:37:45.416Z,371.25
2019-02-22T11:38:45.417Z,371.25
2019-02-22T11:39:45.397Z,365.62
2019-02-22T11:40:45.382Z,371.25
2019-02-22T11:41:45.410Z,365.62
2019-02-22T11:42:45.359Z,365.62
2019-02-22T11:43:45.345Z,365.62
2019-02-22T11:44:45.348Z,365.62
2019-02-22T11:45:45.324Z,365.62
2019-02-22T11:46:45.313Z,360.00
2019-02-22T11:47:45.346Z,360.00
2019-02-22T11:48:45.294Z,360.00
2019-02-22T11:49:45.282Z,360.00
2019-02-22T11:50:59.089Z,360.00
2019-02-22T11:51:45.277Z,354.38
2019-02-22T11:52:45.271Z,309.38
2019-02-22T11:53:45.265Z,303.75
2019-02-22T11:54:45.279Z,303.75
2019-02-22T11:55:45.248Z,303.75
2019-02-22T11:56:45.209Z,343.12
2019-02-22T11:57:45.208Z,348.75
2019-02-22T11:58:45.186Z,348.75
2019-02-22T11:59:45.195Z,343.12
2019-02-22T12:00:45.188Z,343.12
2019-02-22T12:01:45.154Z,343.12
2019-02-22T12:02:45.729Z,337.50
2019-02-22T12:03:45.146Z,337.50
2019-02-22T12:04:45.201Z,337.50
2019-02-22T12:05:45.117Z,337.50
2019-02-22T12:06:45.107Z,337.50
2019-02-22T12:07:45.094Z,331.88
2019-02-22T12:08:45.080Z,331.88
2019-02-22T12:09:45.071Z,331.88
2019-02-22T12:10:45.236Z,337.50
2019-02-22T12:11:45.116Z,326.25
2019-02-22T12:12:45.120Z,331.88
2019-02-22T12:13:45.082Z,331.88
2019-02-22T12:14:51.622Z,326.25
2019-02-22T12:15:46.071Z,326.25
2019-02-22T12:16:44.995Z,326.25
2019-02-22T12:17:44.997Z,326.25
2019-02-22T12:18:44.984Z,326.25
2019-02-22T12:19:45.557Z,320.62
2019-02-22T12:20:44.950Z,320.62
2019-02-22T12:21:57.599Z,320.62
2019-02-22T12:22:44.930Z,315.00
2019-02-22T12:23:44.921Z,315.00
2019-02-22T12:24:44.906Z,315.00
2019-02-22T12:25:44.899Z,309.38
2019-02-22T12:26:44.888Z,309.38
2019-02-22T12:27:44.882Z,309.38
2019-02-22T12:28:44.867Z,303.75
2019-02-22T12:29:44.853Z,303.75
2019-02-22T12:30:44.844Z,303.75
2019-02-22T12:31:44.836Z,303.75
2019-02-22T12:32:44.825Z,298.12
2019-02-22T12:33:44.849Z,298.12
2019-02-22T12:34:44.799Z,298.12
2019-02-22T12:35:44.790Z,292.50
2019-02-22T12:36:44.775Z,292.50
2019-02-22T12:37:44.776Z,292.50
2019-02-22T12:38:44.758Z,292.50
2019-02-22T12:39:44.763Z,286.88
2019-02-22T12:40:44.738Z,286.88
2019-02-22T12:41:44.735Z,286.88
2019-02-22T12:42:44.713Z,281.25
2019-02-22T12:43:44.701Z,281.25
2019-02-22T12:44:44.689Z,281.25
2019-02-22T12:45:44.691Z,281.25
2019-02-22T12:46:45.564Z,275.62
2019-02-22T12:47:44.668Z,275.62
2019-02-22T12:48:44.645Z,275.62
2019-02-22T12:49:44.642Z,270.00
2019-02-22T12:50:44.628Z,270.00
2019-02-22T12:51:44.653Z,270.00
2019-02-22T12:52:56.203Z,264.38
2019-02-22T12:53:44.592Z,264.38
2019-02-22T12:54:44.584Z,264.38
2019-02-22T12:55:44.578Z,264.38
2019-02-22T12:56:57.124Z,258.75
2019-02-22T12:57:45.602Z,258.75
2019-02-22T12:58:44.544Z,258.75
2019-02-22T12:59:44.530Z,258.75
2019-02-22T13:00:44.531Z,258.75
2019-02-22T13:01:44.511Z,253.12
2019-02-22T13:02:44.507Z,253.12
2019-02-22T13:03:44.528Z,253.12
2019-02-22T13:04:44.480Z,247.50
2019-02-22T13:05:44.474Z,247.50